Time;durP1;ratioP1;P1;durP2;ratioP2;P2;SDS_P1;SDS_P2;PMS_P1;PMS_P2;Temp;Humidity;BMP_temperature;BMP_pressure;BME280_temperature;BME280_humidity;BME280_pressure;Samples;Min_cycle;Max_cycle;Signal;HPM_P1;HPM_P2
2021/05/07 00:01:39;;;;;;;2.93;2.50;;;6.40;99.90;;;7.17;100.00;97276.47;5120851;28;20480;-84
2021/05/07 00:04:07;;;;;;;2.63;2.40;;;6.40;99.90;;;7.14;100.00;97271.63;5122109;28;20892;-83
2021/05/07 00:06:36;;;;;;;3.30;3.00;;;6.20;99.90;;;7.16;100.00;97269.63;5118779;27;20898;-84
2021/05/07 00:09:06;;;;;;;3.47;3.00;;;6.40;99.90;;;7.18;100.00;97265.06;5118816;28;20454;-84
2021/05/07 00:11:34;;;;;;;3.43;2.90;;;6.40;99.90;;;7.21;100.00;97269.09;5119476;27;21032;-84
2021/05/07 00:14:03;;;;;;;3.27;2.97;;;6.40;99.90;;;7.11;100.00;97264.19;5119982;27;20502;-84
2021/05/07 00:16:30;;;;;;;4.93;2.83;;;6.30;99.90;;;7.12;100.00;97263.19;5123951;27;20464;-84
2021/05/07 00:19:00;;;;;;;3.97;3.00;;;6.30;99.90;;;7.13;100.00;97262.22;5122307;27;20573;-84
2021/05/07 00:21:40;;;;;;;4.60;3.30;;;6.30;99.90;;;7.12;100.00;97260.59;5131644;27;20457;-84
2021/05/07 00:24:08;;;;;;;5.30;3.53;;;6.40;99.90;;;7.14;100.00;97263.84;5131162;27;20485;-83
2021/05/07 00:26:36;;;;;;;5.30;3.50;;;6.40;99.90;;;7.17;100.00;97263.47;5130279;27;20457;-84
2021/05/07 00:29:04;;;;;;;3.33;2.70;;;6.40;99.90;;;7.22;100.00;97260.31;5128509;27;20595;-84
2021/05/07 00:31:32;;;;;;;5.57;3.60;;;6.50;99.90;;;7.15;100.00;97259.44;5126893;27;20880;-84
2021/05/07 00:33:59;;;;;;;3.20;2.87;;;6.40;99.90;;;7.22;100.00;97255.13;5131914;27;20519;-84
2021/05/07 00:36:27;;;;;;;3.73;3.23;;;6.50;99.90;;;7.22;100.00;97261.09;5127015;27;20443;-84
2021/05/07 00:38:56;;;;;;;3.37;3.07;;;6.50;99.90;;;7.23;100.00;97247.13;5125997;27;20522;-84
2021/05/07 00:41:23;;;;;;;5.90;3.20;;;6.50;99.90;;;7.24;100.00;97260.91;5130808;27;20461;-84
2021/05/07 00:43:53;;;;;;;2.90;2.50;;;6.40;99.90;;;7.22;100.00;97266.28;5127892;27;20494;-84
2021/05/07 00:46:21;;;;;;;4.17;3.30;;;6.50;99.90;;;7.19;100.00;97271.06;5121436;27;20468;-84
2021/05/07 00:48:48;;;;;;;2.87;2.67;;;6.50;99.90;;;7.13;100.00;97272.59;5132725;27;20965;-84
2021/05/07 00:51:16;;;;;;;3.83;2.80;;;6.50;99.90;;;7.19;100.00;97274.47;5132899;27;20456;-84
2021/05/07 00:53:44;;;;;;;4.07;3.30;;;6.50;99.90;;;7.21;100.00;97274.28;5128618;27;20506;-84
2021/05/07 00:56:13;;;;;;;3.03;2.73;;;6.50;99.90;;;7.15;100.00;97275.03;5127026;27;20515;-84
2021/05/07 00:58:41;;;;;;;2.90;2.60;;;6.40;99.90;;;7.16;100.00;97272.25;5127860;27;20464;-84
2021/05/07 01:01:08;;;;;;;4.50;3.20;;;6.30;99.90;;;7.19;100.00;97271.88;5127648;27;20844;-84
2021/05/07 01:03:36;;;;;;;3.67;2.80;;;6.40;99.90;;;7.14;100.00;97270.81;5132963;27;20448;-84
2021/05/07 01:06:05;;;;;;;4.37;2.87;;;6.50;99.90;;;7.12;100.00;97264.97;5130592;27;20884;-84
2021/05/07 01:08:33;;;;;;;2.67;2.47;;;6.40;99.90;;;7.09;100.00;97266.16;5131967;27;20799;-84
2021/05/07 01:11:01;;;;;;;3.97;3.07;;;6.30;99.90;;;7.03;100.00;97278.13;5132699;27;20521;-84
2021/05/07 01:13:30;;;;;;;4.40;2.60;;;6.30;99.90;;;7.10;100.00;97285.97;5126502;27;20899;-84
2021/05/07 01:15:57;;;;;;;3.80;2.70;;;6.40;99.90;;;7.10;100.00;97293.78;5116605;27;20474;-84
2021/05/07 01:18:26;;;;;;;6.00;3.30;;;6.30;99.90;;;7.08;100.00;97290.53;5126032;27;20518;-84
2021/05/07 01:20:54;;;;;;;4.87;3.10;;;6.30;99.90;;;7.06;100.00;97289.94;5122037;27;20487;-84
2021/05/07 01:23:22;;;;;;;5.40;3.03;;;6.30;99.90;;;7.08;100.00;97286.16;5131434;27;20473;-84
2021/05/07 01:25:50;;;;;;;4.10;3.27;;;6.40;99.90;;;7.07;100.00;97286.34;5121365;27;20511;-84
2021/05/07 01:28:17;;;;;;;3.67;2.60;;;6.30;99.90;;;7.05;100.00;97291.72;5122392;27;21146;-84
2021/05/07 01:30:48;;;;;;;3.67;3.07;;;6.30;99.90;;;7.02;100.00;97286.09;5123355;27;20458;-84
2021/05/07 01:33:17;;;;;;;2.50;2.30;;;6.20;99.90;;;6.96;100.00;97292.81;5128805;27;20536;-84
2021/05/07 01:35:46;;;;;;;3.80;3.30;;;6.20;99.90;;;6.93;100.00;97295.78;5123924;27;20457;-84
2021/05/07 01:38:17;;;;;;;5.13;3.27;;;6.10;99.90;;;6.92;100.00;97296.78;5131606;27;20470;-84
2021/05/07 01:40:47;;;;;;;3.20;2.90;;;6.10;99.90;;;6.93;100.00;97307.97;5128196;27;20470;-84
2021/05/07 01:43:15;;;;;;;4.57;3.23;;;6.10;99.90;;;6.98;100.00;97303.03;5125981;27;20856;-84
2021/05/07 01:45:46;;;;;;;2.63;2.43;;;6.10;99.90;;;7.05;100.00;97301.31;5121997;27;20473;-84
2021/05/07 01:48:14;;;;;;;3.67;3.07;;;6.20;99.90;;;7.06;100.00;97302.94;5125384;27;20980;-84
2021/05/07 01:50:44;;;;;;;4.80;2.83;;;6.30;99.90;;;7.06;100.00;97308.13;5128482;27;20973;-84
2021/05/07 01:53:15;;;;;;;4.30;2.97;;;6.30;99.90;;;7.02;100.00;97309.47;5129786;27;20500;-84
2021/05/07 01:55:46;;;;;;;2.60;2.40;;;6.30;99.90;;;7.04;100.00;97305.72;5128140;27;20526;-84
2021/05/07 01:58:16;;;;;;;4.77;2.77;;;6.30;99.90;;;7.04;100.00;97310.13;5129113;27;20968;-83
2021/05/07 02:00:44;;;;;;;4.60;2.83;;;6.30;99.90;;;7.09;100.00;97307.75;5116615;27;20482;-84
2021/05/07 02:03:12;;;;;;;4.10;2.60;;;6.40;99.90;;;7.02;100.00;97317.28;5123369;27;20463;-84
2021/05/07 02:05:40;;;;;;;5.00;3.60;;;6.40;99.90;;;6.95;100.00;97314.59;5121062;27;20497;-84
2021/05/07 02:08:09;;;;;;;2.97;2.50;;;6.30;99.90;;;6.93;100.00;97328.78;5122323;27;20834;-83
2021/05/07 02:10:39;;;;;;;3.50;2.80;;;6.20;99.90;;;6.97;100.00;97324.81;5129903;27;20453;-85
2021/05/07 02:13:09;;;;;;;3.60;2.90;;;6.30;99.90;;;6.91;100.00;97330.72;5127751;27;20494;-84
2021/05/07 02:15:38;;;;;;;3.20;2.90;;;6.30;99.90;;;6.96;100.00;97338.81;5129846;27;20473;-84
2021/05/07 02:18:07;;;;;;;4.80;2.67;;;6.30;99.90;;;6.99;100.00;97336.66;5128657;27;20469;-83
2021/05/07 02:20:37;;;;;;;3.50;3.17;;;6.30;99.90;;;6.92;100.00;97332.34;5126792;27;20454;-84
2021/05/07 02:23:06;;;;;;;6.33;3.33;;;6.20;99.90;;;6.90;100.00;97342.13;5127852;27;20494;-84
2021/05/07 02:25:33;;;;;;;6.47;3.23;;;6.20;99.90;;;6.92;100.00;97337.53;5123052;27;20854;-84
2021/05/07 02:28:02;;;;;;;3.70;3.30;;;6.20;99.90;;;6.93;100.00;97349.56;5129442;27;20641;-84
2021/05/07 02:30:31;;;;;;;5.17;3.13;;;6.20;99.90;;;6.91;100.00;97346.31;5130085;27;20513;-84
2021/05/07 02:32:59;;;;;;;5.33;3.90;;;6.20;99.90;;;6.91;100.00;97357.53;5127232;27;20497;-84
2021/05/07 02:35:28;;;;;;;5.50;3.00;;;6.20;99.90;;;6.92;100.00;97350.53;5130818;27;20465;-84
2021/05/07 02:37:55;;;;;;;4.50;3.60;;;6.30;99.90;;;6.93;100.00;97359.94;5126650;27;20461;-84
2021/05/07 02:40:23;;;;;;;3.67;3.10;;;6.20;99.90;;;6.87;100.00;97358.09;5130042;27;20846;-84
2021/05/07 02:42:51;;;;;;;4.60;3.33;;;6.20;99.90;;;6.90;100.00;97361.13;5124546;27;21014;-83
2021/05/07 02:45:20;;;;;;;3.37;2.83;;;6.20;99.90;;;6.95;100.00;97355.38;5124298;27;20496;-84
2021/05/07 02:47:47;;;;;;;4.40;3.10;;;6.20;99.90;;;6.89;100.00;97351.72;5125913;27;20469;-84
2021/05/07 02:50:15;;;;;;;3.93;3.03;;;6.20;99.90;;;6.74;100.00;97350.91;5127361;27;20461;-84
2021/05/07 02:52:44;;;;;;;3.90;2.87;;;6.00;99.90;;;6.79;100.00;97369.38;5120804;27;21000;-83
2021/05/07 02:55:13;;;;;;;4.00;3.60;;;6.10;99.90;;;6.73;100.00;97377.09;5128213;27;20453;-83
2021/05/07 02:57:40;;;;;;;4.73;3.80;;;6.00;99.90;;;6.73;100.00;97372.69;5129078;27;20813;-83
2021/05/07 03:00:10;;;;;;;9.80;3.80;;;6.00;99.90;;;6.75;100.00;97372.50;5129439;27;20460;-83
2021/05/07 03:02:39;;;;;;;4.53;3.80;;;6.10;99.90;;;6.75;100.00;97375.91;5125591;27;20461;-83
2021/05/07 03:05:08;;;;;;;3.27;2.97;;;6.10;99.90;;;6.74;100.00;97381.28;5127229;27;20461;-82
2021/05/07 03:07:36;;;;;;;5.00;3.80;;;6.00;99.90;;;6.72;100.00;97383.25;5121701;27;20457;-83
2021/05/07 03:10:05;;;;;;;4.70;3.87;;;6.00;99.90;;;6.68;100.00;97382.81;5129639;27;20743;-83
2021/05/07 03:12:33;;;;;;;5.03;4.13;;;5.90;99.90;;;6.67;100.00;97390.75;5122210;27;20856;-83
2021/05/07 03:15:01;;;;;;;5.90;3.60;;;5.90;99.90;;;6.66;100.00;97402.97;5130355;27;20449;-83
2021/05/07 03:17:28;;;;;;;5.10;4.30;;;5.90;99.90;;;6.61;100.00;97404.47;5126798;27;20469;-83
2021/05/07 03:19:57;;;;;;;5.00;4.30;;;5.80;99.90;;;6.58;100.00;97403.03;5125608;27;20572;-83
2021/05/07 03:22:25;;;;;;;5.30;4.50;;;5.80;99.90;;;6.56;100.00;97403.22;5129933;27;20461;-83
2021/05/07 03:24:53;;;;;;;4.67;3.87;;;5.80;99.90;;;6.46;100.00;97400.06;5123593;27;20589;-83
2021/05/07 03:27:21;;;;;;;11.77;4.10;;;5.70;99.90;;;6.43;100.00;97415.19;5121505;27;20465;-83
2021/05/07 03:29:48;;;;;;;6.87;5.17;;;5.60;99.90;;;6.40;100.00;97421.56;5127380;27;20461;-84
2021/05/07 03:32:16;;;;;;;6.20;5.00;;;5.60;99.90;;;6.34;100.00;97417.06;5125573;27;20469;-83
2021/05/07 03:34:48;;;;;;;8.90;4.60;;;5.50;99.90;;;6.31;100.00;97422.63;5126029;27;20978;-83
2021/05/07 03:37:17;;;;;;;6.43;4.73;;;5.60;99.90;;;6.30;100.00;97436.56;5123888;27;20460;-85
2021/05/07 03:39:45;;;;;;;7.37;5.57;;;5.50;99.90;;;6.25;100.00;97425.09;5122886;27;20786;-83
2021/05/07 03:42:13;;;;;;;6.17;4.33;;;5.50;99.90;;;6.19;100.00;97424.00;5124737;27;20457;-89
2021/05/07 03:44:42;;;;;;;7.97;5.70;;;5.40;99.90;;;6.15;100.00;97432.31;5123551;27;20491;-83
2021/05/07 03:47:09;;;;;;;9.83;5.40;;;5.40;99.90;;;6.12;100.00;97437.84;5126801;27;20813;-83
2021/05/07 03:49:37;;;;;;;5.27;4.77;;;5.40;99.90;;;6.08;100.00;97445.97;5119892;27;20907;-83
2021/05/07 03:52:05;;;;;;;22.57;12.57;;;5.30;99.90;;;6.05;100.00;97442.94;5123671;27;20467;-84
2021/05/07 03:54:34;;;;;;;12.43;5.77;;;5.30;99.90;;;5.94;100.00;97446.72;5126635;27;20457;-83
2021/05/07 03:57:01;;;;;;;12.30;5.83;;;5.20;99.90;;;5.89;100.00;97453.44;5118563;27;20473;-83
2021/05/07 03:59:29;;;;;;;11.73;5.03;;;5.10;99.90;;;5.82;100.00;97458.47;5125845;27;20472;-79
2021/05/07 04:01:56;;;;;;;9.57;6.10;;;5.10;99.90;;;5.81;100.00;97458.63;5124153;27;20964;-79
2021/05/07 04:04:24;;;;;;;11.90;8.00;;;5.00;99.90;;;5.77;100.00;97460.75;5124849;27;20486;-83
2021/05/07 04:06:51;;;;;;;9.30;6.83;;;5.00;99.90;;;5.70;100.00;97464.19;5121911;27;20472;-80
2021/05/07 04:09:24;;;;;;;7.80;6.33;;;4.90;99.90;;;5.71;100.00;97471.00;5127136;28;20447;-79
2021/05/07 04:11:56;;;;;;;12.37;6.30;;;4.90;99.90;;;5.67;100.00;97475.72;5121358;27;20446;-79
2021/05/07 04:14:23;;;;;;;7.43;5.33;;;4.90;99.90;;;5.50;100.00;97471.59;5124990;28;20516;-79
2021/05/07 04:16:51;;;;;;;7.63;5.87;;;4.70;99.90;;;5.47;100.00;97483.13;5129329;28;20458;-80
2021/05/07 04:19:18;;;;;;;9.83;6.50;;;4.70;99.90;;;5.54;100.00;97486.66;5129158;27;20457;-79
2021/05/07 04:21:46;;;;;;;13.43;7.70;;;4.70;99.90;;;5.53;100.00;97492.81;5129852;27;20447;-80
2021/05/07 04:24:13;;;;;;;9.83;6.60;;;4.90;99.90;;;5.43;100.00;97496.59;5129367;27;20472;-80
2021/05/07 04:26:41;;;;;;;7.73;5.93;;;4.70;99.90;;;5.40;100.00;97499.50;5125105;28;20455;-80
2021/05/07 04:29:09;;;;;;;7.60;6.03;;;4.70;99.90;;;5.35;100.00;97499.19;5124928;28;20800;-82
2021/05/07 04:31:37;;;;;;;14.27;9.93;;;4.60;99.90;;;5.35;100.00;97500.00;5120062;27;20467;-79
2021/05/07 04:34:06;;;;;;;10.33;6.13;;;4.70;99.90;;;5.24;100.00;97502.97;5123592;28;20489;-80
2021/05/07 04:36:34;;;;;;;8.70;6.67;;;4.50;99.90;;;5.28;100.00;97513.78;5124608;28;20443;-80
2021/05/07 04:39:01;;;;;;;9.57;7.00;;;4.50;99.90;;;5.28;100.00;97513.78;5118779;27;20459;-80
2021/05/07 04:41:29;;;;;;;13.20;7.47;;;4.50;99.90;;;5.31;100.00;97516.88;5119672;27;20442;-80
2021/05/07 04:43:59;;;;;;;17.70;7.50;;;4.50;99.90;;;5.28;100.00;97514.59;5125127;28;20496;-80
2021/05/07 04:46:28;;;;;;;8.83;6.60;;;4.50;99.90;;;5.29;100.00;97518.00;5127887;27;20458;-80
2021/05/07 04:48:55;;;;;;;9.47;7.00;;;4.50;99.90;;;5.29;100.00;97518.00;5122347;27;20434;-79
2021/05/07 04:51:23;;;;;;;10.97;7.23;;;4.50;99.90;;;5.34;100.00;97516.56;5129058;27;20445;-80
2021/05/07 04:53:50;;;;;;;11.80;8.30;;;4.50;99.90;;;5.38;100.00;97528.19;5127843;27;20535;-80
2021/05/07 04:56:18;;;;;;;13.93;8.80;;;4.60;99.90;;;5.45;100.00;97530.91;5127467;27;20439;-80
2021/05/07 04:58:45;;;;;;;19.67;8.87;;;4.80;99.90;;;5.48;100.00;97528.78;5128092;27;20434;-80
2021/05/07 05:01:13;;;;;;;11.80;8.50;;;4.80;99.90;;;5.53;100.00;97539.47;5131231;27;20777;-80
2021/05/07 05:03:41;;;;;;;14.10;9.10;;;4.80;99.90;;;5.61;100.00;97537.84;5128837;27;20447;-80
2021/05/07 05:06:09;;;;;;;19.03;8.47;;;4.90;99.90;;;5.65;100.00;97546.91;5130736;27;20495;-80
2021/05/07 05:08:36;;;;;;;13.23;8.07;;;5.00;99.90;;;5.69;100.00;97551.59;5125757;27;20456;-80
2021/05/07 05:11:04;;;;;;;9.90;7.10;;;5.10;99.90;;;5.70;100.00;97557.56;5119183;27;20509;-79
2021/05/07 05:13:31;;;;;;;11.17;8.33;;;5.10;99.90;;;5.72;100.00;97555.63;5126568;27;20997;-80
2021/05/07 05:15:59;;;;;;;10.87;8.00;;;5.10;99.90;;;5.72;100.00;97566.81;5130977;27;20467;-77
2021/05/07 05:18:29;;;;;;;14.77;8.07;;;5.00;99.90;;;5.72;100.00;97571.19;5124552;27;20881;-76
2021/05/07 05:21:01;;;;;;;11.00;8.47;;;5.10;99.90;;;5.70;100.00;97560.16;5123731;27;20491;-85
2021/05/07 05:23:30;;;;;;;18.97;12.80;;;5.10;99.90;;;5.72;100.00;97566.00;5120933;27;20483;-79
2021/05/07 05:25:58;;;;;;;12.30;8.37;;;5.10;99.90;;;5.78;100.00;97560.13;5128829;27;20820;-79
2021/05/07 05:28:27;;;;;;;11.43;7.80;;;5.20;99.90;;;5.76;100.00;97567.28;5119961;27;20511;-79
2021/05/07 05:30:54;;;;;;;9.17;7.40;;;5.20;99.90;;;5.79;100.00;97572.13;5120960;27;20501;-79
2021/05/07 05:33:22;;;;;;;13.63;8.63;;;5.10;99.90;;;5.78;100.00;97571.31;5126265;27;20550;-78
2021/05/07 05:35:50;;;;;;;12.30;8.00;;;5.10;99.90;;;5.80;100.00;97589.28;5120872;27;20461;-77
2021/05/07 05:38:18;;;;;;;12.93;8.13;;;5.20;99.90;;;5.68;100.00;97585.47;5122825;27;20466;-77
2021/05/07 05:40:46;;;;;;;11.47;7.90;;;5.10;99.90;;;5.73;100.00;97585.75;5132625;27;20445;-77
2021/05/07 05:43:14;;;;;;;11.13;7.40;;;5.10;99.90;;;5.81;100.00;97585.72;5119652;27;20467;-77
2021/05/07 05:45:42;;;;;;;16.17;7.90;;;5.20;99.90;;;5.86;100.00;97597.28;5123520;27;20447;-77
2021/05/07 05:48:12;;;;;;;13.17;8.03;;;5.30;99.90;;;5.89;100.00;97603.91;5125841;27;20487;-78
2021/05/07 05:50:43;;;;;;;15.40;9.63;;;5.30;99.90;;;5.89;100.00;97601.31;5124867;27;20701;-77
2021/05/07 05:53:11;;;;;;;12.53;7.30;;;5.30;99.90;;;5.87;100.00;97608.44;5127686;27;20891;-77
2021/05/07 05:55:40;;;;;;;10.90;8.03;;;5.30;99.90;;;5.87;100.00;97611.03;5132167;27;20445;-82
2021/05/07 05:58:08;;;;;;;30.50;12.80;;;5.30;99.90;;;5.94;100.00;97611.97;5133001;27;20483;-77
2021/05/07 06:00:36;;;;;;;12.53;8.03;;;5.40;99.90;;;5.97;100.00;97616.84;5132709;27;20868;-77
2021/05/07 06:03:05;;;;;;;15.90;8.30;;;5.40;99.90;;;5.97;100.00;97612.44;5132936;27;20531;-76
2021/05/07 06:05:33;;;;;;;10.70;7.40;;;5.40;99.90;;;5.95;100.00;97618.78;5129802;27;20460;-77
2021/05/07 06:08:01;;;;;;;12.10;7.77;;;5.40;99.90;;;5.96;100.00;97623.00;5133777;27;20501;-77
2021/05/07 06:10:29;;;;;;;12.93;7.17;;;5.40;99.90;;;5.94;100.00;97627.53;5128548;27;20988;-77
2021/05/07 06:12:57;;;;;;;12.27;7.70;;;5.40;99.90;;;5.92;100.00;97635.50;5129658;27;20490;-77
2021/05/07 06:15:26;;;;;;;13.40;8.33;;;5.30;99.90;;;5.85;100.00;97628.53;5133579;27;20493;-77
2021/05/07 06:17:53;;;;;;;16.43;9.13;;;5.30;99.90;;;5.89;100.00;97627.25;5125550;27;20455;-76
2021/05/07 06:20:21;;;;;;;16.60;8.13;;;5.30;99.90;;;5.82;100.00;97631.47;5133611;27;20444;-77
2021/05/07 06:22:49;;;;;;;10.50;7.30;;;5.20;99.90;;;5.89;100.00;97635.84;5133264;27;20470;-76
2021/05/07 06:25:20;;;;;;;13.87;8.80;;;5.30;99.90;;;5.98;100.00;97639.22;5133582;27;20473;-76
2021/05/07 06:27:47;;;;;;;15.33;8.87;;;5.40;99.90;;;5.96;100.00;97646.38;5133699;27;20446;-76
2021/05/07 06:30:17;;;;;;;12.13;7.83;;;5.30;99.90;;;6.07;100.00;97657.16;5129521;27;20940;-76
2021/05/07 06:32:44;;;;;;;15.30;8.60;;;5.50;99.90;;;6.09;100.00;97654.41;5119680;27;20440;-77
2021/05/07 06:35:13;;;;;;;9.50;7.10;;;5.60;99.90;;;6.04;100.00;97654.91;5132895;27;20441;-77
2021/05/07 06:37:43;;;;;;;10.23;7.13;;;5.50;99.90;;;6.10;100.00;97653.44;5127711;27;20442;-77
2021/05/07 06:40:13;;;;;;;10.03;7.70;;;5.60;99.90;;;6.17;100.00;97659.59;5133346;27;20537;-77
2021/05/07 06:42:41;;;;;;;12.13;7.80;;;5.70;99.90;;;6.23;100.00;97653.72;5132268;27;20451;-77
2021/05/07 06:45:11;;;;;;;10.30;7.63;;;5.70;99.90;;;6.25;100.00;97656.16;5132795;27;20503;-77
2021/05/07 06:47:40;;;;;;;9.03;6.20;;;5.70;99.90;;;6.30;100.00;97664.22;5124917;27;20453;-77
2021/05/07 06:50:10;;;;;;;9.50;6.73;;;5.80;99.90;;;6.34;100.00;97660.31;5130196;27;20451;-77
2021/05/07 06:52:37;;;;;;;9.90;6.50;;;5.80;99.90;;;6.38;100.00;97667.59;5128039;27;20487;-77
2021/05/07 06:55:07;;;;;;;9.33;6.90;;;5.80;99.90;;;6.39;100.00;97664.00;5127958;27;20454;-77
2021/05/07 06:57:36;;;;;;;10.17;6.60;;;5.80;99.90;;;6.42;100.00;97663.66;5129789;27;20898;-77
2021/05/07 07:00:07;;;;;;;7.97;6.20;;;5.80;99.90;;;6.44;100.00;97672.09;5129986;27;20451;-77
2021/05/07 07:02:34;;;;;;;9.57;6.07;;;5.90;99.90;;;6.50;100.00;97673.22;5128089;27;20511;-77
2021/05/07 07:05:05;;;;;;;8.30;6.17;;;6.00;99.90;;;6.56;100.00;97657.75;5124107;27;20451;-77
2021/05/07 07:07:35;;;;;;;8.50;6.00;;;6.10;99.90;;;6.56;100.00;97670.72;5132747;27;20441;-77
2021/05/07 07:10:19;;;;;;;7.57;5.67;;;6.10;99.90;;;6.59;100.00;97678.19;5127352;27;20453;-77
2021/05/07 07:12:47;;;;;;;7.23;5.30;;;6.10;99.90;;;6.65;100.00;97665.50;5131955;27;20449;-77
2021/05/07 07:15:16;;;;;;;8.00;6.40;;;6.10;99.90;;;6.70;100.00;97678.81;5131921;27;20453;-77
2021/05/07 07:17:43;;;;;;;8.70;5.60;;;6.10;99.90;;;6.75;100.00;97664.31;5128794;27;20941;-77
2021/05/07 07:20:13;;;;;;;7.87;5.63;;;6.20;99.90;;;6.83;100.00;97666.03;5125382;27;20925;-77
2021/05/07 07:22:42;;;;;;;8.50;5.47;;;6.30;99.90;;;6.85;100.00;97666.66;5131616;27;20528;-77
2021/05/07 07:25:11;;;;;;;10.37;5.57;;;6.30;99.90;;;6.86;99.46;97660.50;5132204;27;20440;-77
2021/05/07 07:27:41;;;;;;;6.90;4.83;;;6.30;99.90;;;6.95;100.00;97659.44;5131894;27;20476;-77
2021/05/07 07:30:11;;;;;;;9.77;5.60;;;6.40;99.90;;;6.98;98.27;97667.69;5129951;27;20442;-77
2021/05/07 07:32:38;;;;;;;6.90;5.63;;;6.40;99.90;;;7.00;96.96;97672.75;5131361;27;20952;-77
2021/05/07 07:35:09;;;;;;;7.37;5.30;;;6.40;99.90;;;7.04;96.26;97676.63;5132179;27;20481;-77
2021/05/07 07:37:37;;;;;;;8.70;5.60;;;6.50;99.90;;;7.10;95.21;97678.50;5130074;27;20453;-77
2021/05/07 07:40:07;;;;;;;8.83;6.00;;;6.50;99.90;;;7.16;94.67;97677.81;5132108;27;20446;-78
2021/05/07 07:42:34;;;;;;;6.30;4.80;;;6.50;99.90;;;7.24;94.63;97687.34;5132223;27;20452;-77
2021/05/07 07:45:03;;;;;;;12.20;4.13;;;6.70;99.90;;;7.36;87.24;97694.53;5124652;27;20932;-77
2021/05/07 07:47:31;;;;;;;4.90;4.00;;;6.80;99.90;;;7.39;84.35;97696.00;5128631;27;20844;-77
2021/05/07 07:49:59;;;;;;;9.03;4.33;;;6.80;98.90;;;7.52;84.38;97694.44;5130519;27;20472;-77
2021/05/07 07:52:26;;;;;;;6.80;4.83;;;7.00;99.30;;;7.52;82.76;97689.22;5125151;27;20446;-77
2021/05/07 07:54:55;;;;;;;8.23;4.93;;;7.00;98.70;;;7.65;84.01;97691.22;5125788;27;20497;-77
2021/05/07 07:57:26;;;;;;;9.83;3.93;;;7.20;99.30;;;7.68;84.23;97690.03;5129644;27;20488;-77
2021/05/07 07:59:53;;;;;;;7.23;4.30;;;7.10;98.90;;;7.72;85.41;97686.09;5127228;27;20437;-77
2021/05/07 08:02:21;;;;;;;4.93;3.90;;;7.20;99.10;;;7.83;85.31;97690.88;5128106;27;20453;-77
2021/05/07 08:04:49;;;;;;;8.57;5.00;;;7.30;99.40;;;7.92;84.78;97687.19;5131249;27;20454;-78
2021/05/07 08:07:16;;;;;;;7.93;4.70;;;7.40;99.10;;;8.03;85.05;97686.75;5131790;27;20445;-78
2021/05/07 08:09:45;;;;;;;6.27;4.60;;;7.60;99.50;;;8.12;80.36;97690.09;5131614;27;20473;-77
2021/05/07 08:12:14;;;;;;;6.10;3.57;;;7.70;97.70;;;8.17;79.71;97701.56;5130798;27;20434;-78
2021/05/07 08:14:41;;;;;;;7.33;3.57;;;7.60;97.50;;;8.20;76.50;97703.81;5130859;27;20591;-77
2021/05/07 08:17:09;;;;;;;5.27;3.40;;;7.60;96.60;;;8.27;77.41;97714.31;5131718;27;20442;-77
2021/05/07 08:19:44;;;;;;;5.10;3.80;;;7.70;97.30;;;8.30;77.98;97713.97;5131553;27;20446;-77
2021/05/07 08:22:12;;;;;;;7.43;4.00;;;7.70;97.10;;;8.36;77.78;97716.69;5131646;27;20800;-78
2021/05/07 08:24:39;;;;;;;7.07;4.03;;;7.80;96.90;;;8.42;77.77;97717.75;5131518;27;20537;-77
2021/05/07 08:27:07;;;;;;;6.40;4.17;;;7.90;97.10;;;8.40;73.22;97725.72;5128219;27;20514;-78
2021/05/07 08:29:35;;;;;;;6.70;4.17;;;7.90;95.00;;;8.47;75.60;97729.22;5124234;27;20457;-77
2021/05/07 08:32:04;;;;;;;4.97;3.80;;;8.00;96.60;;;8.49;73.48;97732.47;5125984;28;20486;-77
2021/05/07 08:34:32;;;;;;;4.90;3.40;;;7.90;95.30;;;8.52;72.68;97733.91;5126728;27;20492;-77
2021/05/07 08:36:59;;;;;;;6.73;4.00;;;7.90;95.20;;;8.55;75.25;97738.75;5130224;27;20453;-77
2021/05/07 08:39:27;;;;;;;7.50;4.53;;;8.00;96.20;;;8.58;75.06;97739.19;5135541;27;20445;-77
2021/05/07 08:41:54;;;;;;;8.40;4.80;;;8.10;96.20;;;8.48;76.48;97748.28;5135199;27;20487;-78
2021/05/07 08:44:22;;;;;;;7.30;4.53;;;7.90;96.50;;;8.43;78.00;97761.88;5124309;27;20482;-78
2021/05/07 08:46:51;;;;;;;6.97;4.27;;;7.90;97.00;;;8.48;79.63;97748.28;5135651;27;20446;-78
2021/05/07 08:49:19;;;;;;;8.33;4.30;;;7.90;97.90;;;8.43;78.74;97750.63;5130133;27;20872;-78
2021/05/07 08:51:47;;;;;;;8.00;4.40;;;7.90;97.10;;;8.53;80.42;97756.38;5132961;27;20796;-78
2021/05/07 08:54:14;;;;;;;8.63;4.47;;;8.00;97.80;;;8.52;79.73;97752.97;5131458;27;20541;-78
2021/05/07 08:56:45;;;;;;;6.27;3.70;;;7.90;97.30;;;8.66;81.12;97740.91;5134585;27;20480;-78
2021/05/07 08:59:13;;;;;;;5.37;3.43;;;8.10;97.90;;;8.74;79.90;97748.63;5131633;27;20458;-78
2021/05/07 09:01:43;;;;;;;8.70;3.70;;;8.20;97.60;;;8.81;79.57;97779.97;5134455;27;20441;-77
2021/05/07 09:04:15;;;;;;;4.80;3.80;;;8.30;97.50;;;8.81;77.15;97774.78;5132027;27;20805;-78
2021/05/07 09:06:49;;;;;;;10.83;4.30;;;8.30;96.40;;;8.77;79.58;97784.75;5133299;27;20502;-78
2021/05/07 09:09:25;;;;;;;6.50;3.47;;;8.20;97.20;;;8.86;81.15;97780.22;5133564;27;20450;-78
2021/05/07 09:12:00;;;;;;;6.77;4.00;;;8.30;98.30;;;8.92;82.26;97780.31;5128653;27;20469;-78
2021/05/07 09:14:29;;;;;;;4.33;3.17;;;8.40;98.20;;;8.85;79.56;97784.63;5132570;27;20500;-78
2021/05/07 09:17:21;;;;;;;5.63;3.67;;;8.20;97.40;;;8.89;80.64;97808.53;5135115;27;20433;-78
2021/05/07 09:20:03;;;;;;;7.40;4.80;;;8.30;98.30;;;8.71;83.98;97810.75;5133893;27;20444;-78
2021/05/07 09:22:31;;;;;;;7.77;4.20;;;8.10;99.10;;;8.55;87.96;97820.34;5134253;27;20453;-78
2021/05/07 09:25:10;;;;;;;5.30;3.70;;;7.90;99.90;;;8.49;90.37;97805.44;5129722;27;20473;-78
2021/05/07 09:27:38;;;;;;;9.90;4.33;;;7.80;99.90;;;8.54;93.12;97816.13;5134870;27;20445;-78
2021/05/07 09:30:23;;;;;;;7.00;4.23;;;8.00;99.90;;;8.57;94.33;97825.41;5134070;27;20437;-78
2021/05/07 09:32:53;;;;;;;10.83;4.60;;;8.00;99.90;;;8.64;95.67;97826.28;5123180;27;20466;-78
2021/05/07 09:35:27;;;;;;;5.67;3.60;;;8.00;99.90;;;8.52;92.26;97858.97;5134514;27;20898;-78
2021/05/07 09:38:00;;;;;;;6.63;4.80;;;7.90;99.90;;;8.51;94.73;97866.00;5130207;27;20836;-78
2021/05/07 09:40:28;;;;;;;5.53;4.50;;;8.00;99.90;;;8.32;98.83;97884.75;5134404;27;20537;-77
2021/05/07 09:43:08;;;;;;;7.27;4.37;;;7.80;99.90;;;8.13;100.00;97900.00;5134792;27;21038;-78
2021/05/07 09:45:38;;;;;;;8.60;4.70;;;7.40;99.90;;;7.64;100.00;97891.72;5133928;27;20978;-78
2021/05/07 09:48:17;;;;;;;6.10;4.10;;;7.00;99.90;;;7.41;100.00;97900.31;5129054;27;20461;-77
2021/05/07 09:50:47;;;;;;;8.20;4.10;;;6.80;99.90;;;7.29;100.00;97900.88;5132436;27;20455;-77
2021/05/07 09:53:19;;;;;;;7.07;4.90;;;6.80;99.90;;;7.22;100.00;97911.13;5132501;27;20450;-78
2021/05/07 09:55:49;;;;;;;5.47;4.50;;;6.60;99.90;;;7.26;100.00;97896.81;5130169;27;20441;-77
2021/05/07 09:58:18;;;;;;;9.60;5.50;;;6.60;99.90;;;7.41;100.00;97894.31;5125607;27;20459;-77
2021/05/07 10:00:46;;;;;;;9.73;5.30;;;6.80;99.90;;;7.42;100.00;97891.56;5125560;27;20481;-77
2021/05/07 10:03:14;;;;;;;7.83;5.27;;;6.80;99.90;;;7.39;100.00;97891.88;5129728;27;20449;-77
2021/05/07 10:05:41;;;;;;;9.80;5.30;;;6.80;99.90;;;7.43;100.00;97882.75;5133101;27;20445;-77
2021/05/07 10:08:10;;;;;;;6.73;5.30;;;6.80;99.90;;;7.45;100.00;97886.00;5132679;27;20487;-77
2021/05/07 10:10:42;;;;;;;8.90;5.23;;;6.80;99.90;;;7.51;100.00;97887.91;5133714;27;20433;-76
2021/05/07 10:13:14;;;;;;;10.07;6.50;;;6.90;99.90;;;7.59;100.00;97889.66;5131392;27;20848;-78
2021/05/07 10:15:45;;;;;;;8.30;5.87;;;7.00;99.90;;;7.80;100.00;97891.63;5134337;27;20437;-77
2021/05/07 10:18:25;;;;;;;10.50;5.67;;;7.30;99.90;;;7.97;100.00;97912.19;5133733;27;20462;-77
2021/05/07 10:21:00;;;;;;;10.23;4.73;;;7.40;99.90;;;8.09;100.00;97931.59;5123786;27;20938;-77
2021/05/07 10:23:30;;;;;;;4.67;4.03;;;7.50;99.90;;;7.99;100.00;97938.03;5124708;27;20469;-77
2021/05/07 10:26:00;;;;;;;4.83;3.30;;;7.40;99.90;;;7.63;100.00;97942.16;5131747;27;20824;-77
2021/05/07 10:28:29;;;;;;;4.73;3.50;;;7.00;99.90;;;7.54;100.00;97941.38;5129426;27;20456;-78
2021/05/07 10:31:06;;;;;;;8.20;4.07;;;7.00;99.90;;;7.48;100.00;97942.06;5119211;27;20450;-78
2021/05/07 10:33:33;;;;;;;4.50;3.50;;;6.90;99.90;;;7.59;100.00;97944.31;5126907;27;20485;-77